Time;durP1;ratioP1;P1;durP2;ratioP2;P2;SDS_P1;SDS_P2;PMS_P1;PMS_P2;Temp;Humidity;BMP_temperature;BMP_pressure;BME280_temperature;BME280_humidity;BME280_pressure;Samples;Min_cycle;Max_cycle;Signal;HPM_P1;HPM_P2
2022/03/12 00:01:35;;;;;;;13.27;8.83;;;11.10;99.90;;;;;;4959302;28;20304;-55
2022/03/12 00:04:04;;;;;;;11.90;7.93;;;11.10;99.90;;;;;;4957147;28;20589;-54
2022/03/12 00:06:31;;;;;;;15.47;8.97;;;11.10;99.90;;;;;;4971672;28;20238;-54
2022/03/12 00:08:58;;;;;;;11.80;8.03;;;11.10;99.90;;;;;;4954533;28;20398;-56
2022/03/12 00:11:34;;;;;;;13.87;8.80;;;11.00;99.90;;;;;;4957495;28;20230;-55
2022/03/12 00:14:04;;;;;;;13.67;8.20;;;11.00;99.90;;;;;;4957502;28;20369;-55
2022/03/12 00:16:33;;;;;;;13.40;8.27;;;11.00;99.90;;;;;;4956292;28;20191;-55
2022/03/12 00:19:04;;;;;;;12.53;8.53;;;11.00;99.90;;;;;;4954175;28;20214;-55
2022/03/12 00:21:35;;;;;;;15.93;8.97;;;11.10;99.90;;;;;;4958935;28;20206;-55
2022/03/12 00:24:04;;;;;;;12.47;8.07;;;11.10;99.90;;;;;;4960315;28;20202;-54
2022/03/12 00:26:31;;;;;;;11.93;8.50;;;11.00;99.90;;;;;;4960626;28;20654;-56
2022/03/12 00:28:59;;;;;;;11.23;7.97;;;11.10;99.90;;;;;;4959252;28;20220;-54
2022/03/12 00:31:26;;;;;;;11.70;8.30;;;11.00;99.90;;;;;;4960200;28;20210;-54
2022/03/12 00:33:53;;;;;;;15.03;8.73;;;11.00;99.90;;;;;;4960952;28;20296;-55
2022/03/12 00:36:21;;;;;;;10.87;8.00;;;11.00;99.90;;;;;;4960054;28;20298;-55
2022/03/12 00:38:48;;;;;;;10.40;7.83;;;11.00;99.90;;;;;;4974443;28;20290;-53
2022/03/12 00:41:16;;;;;;;15.43;8.10;;;11.10;99.90;;;;;;4960877;28;20233;-56
2022/03/12 00:43:43;;;;;;;13.97;8.83;;;11.00;99.90;;;;;;4959463;28;20674;-55
2022/03/12 00:46:11;;;;;;;11.97;8.03;;;11.00;99.90;;;;;;4973798;28;20715;-54
2022/03/12 00:48:39;;;;;;;14.07;8.47;;;11.00;99.90;;;;;;4958224;28;20312;-54
2022/03/12 00:51:08;;;;;;;12.60;8.67;;;11.00;99.90;;;;;;4959885;28;20623;-54
2022/03/12 00:53:37;;;;;;;12.97;8.50;;;11.00;99.90;;;;;;4959370;28;20559;-55
2022/03/12 00:56:05;;;;;;;13.93;8.77;;;11.00;99.90;;;;;;4960006;28;20217;-54
2022/03/12 00:58:32;;;;;;;13.40;9.17;;;11.00;99.90;;;;;;4958726;28;20817;-54
2022/03/12 01:00:59;;;;;;;11.17;8.20;;;11.10;99.90;;;;;;4957848;28;20311;-55
2022/03/12 01:03:26;;;;;;;11.43;8.50;;;11.00;99.90;;;;;;4958045;28;20298;-55
2022/03/12 01:06:02;;;;;;;14.83;8.50;;;11.10;99.90;;;;;;4959219;28;20323;-54
2022/03/12 01:08:31;;;;;;;14.77;8.80;;;11.10;99.90;;;;;;4959334;28;20662;-56
2022/03/12 01:11:00;;;;;;;12.37;8.00;;;11.10;99.90;;;;;;4960165;28;20753;-54
2022/03/12 01:13:29;;;;;;;12.30;8.33;;;11.00;99.90;;;;;;4959448;28;20198;-55
2022/03/12 01:15:56;;;;;;;13.10;8.33;;;11.10;99.90;;;;;;4960057;28;20708;-57
2022/03/12 01:18:24;;;;;;;11.43;8.17;;;11.10;99.90;;;;;;4974705;28;20233;-54
2022/03/12 01:20:52;;;;;;;11.70;7.73;;;11.10;99.90;;;;;;4959137;28;20333;-54
2022/03/12 01:23:24;;;;;;;13.93;8.77;;;11.10;99.90;;;;;;4959658;28;20246;-56
2022/03/12 01:25:52;;;;;;;13.30;8.30;;;11.10;99.90;;;;;;4957803;28;20225;-54
2022/03/12 01:28:19;;;;;;;14.43;8.90;;;11.00;99.90;;;;;;4959399;28;20292;-54
2022/03/12 01:30:46;;;;;;;11.47;8.47;;;11.10;99.90;;;;;;4960746;28;20253;-54
2022/03/12 01:33:12;;;;;;;14.47;8.70;;;11.10;99.90;;;;;;4959800;28;20690;-54
2022/03/12 01:35:39;;;;;;;14.03;8.63;;;11.00;99.90;;;;;;4962915;28;20340;-55
2022/03/12 01:38:07;;;;;;;15.63;9.23;;;11.00;99.90;;;;;;4978423;28;20293;-54
2022/03/12 01:40:34;;;;;;;13.50;8.00;;;10.90;99.90;;;;;;4964142;28;20570;-54
2022/03/12 01:43:02;;;;;;;14.17;8.67;;;10.90;99.90;;;;;;4961967;28;20217;-55
2022/03/12 01:45:28;;;;;;;11.93;8.20;;;11.00;99.90;;;;;;4963876;28;20300;-56
2022/03/12 01:47:58;;;;;;;15.20;8.47;;;10.90;99.90;;;;;;4962690;28;20664;-55
2022/03/12 01:50:31;;;;;;;13.80;8.27;;;10.80;99.90;;;;;;4963017;28;20306;-55
2022/03/12 01:53:05;;;;;;;13.93;9.07;;;10.70;99.90;;;;;;4964622;28;20237;-54
2022/03/12 01:55:32;;;;;;;13.70;8.90;;;10.80;99.90;;;;;;4962840;28;20285;-53
2022/03/12 01:58:02;;;;;;;11.67;8.73;;;10.60;99.90;;;;;;4962200;28;20671;-55
2022/03/12 02:00:45;;;;;;;13.73;8.63;;;10.60;99.90;;;;;;4962726;28;20260;-55
2022/03/12 02:03:15;;;;;;;18.57;9.37;;;10.60;99.90;;;;;;4961790;28;20240;-54
2022/03/12 02:05:43;;;;;;;13.77;8.17;;;10.60;99.90;;;;;;4962999;28;20214;-55
2022/03/12 02:08:13;;;;;;;17.53;9.80;;;10.50;99.90;;;;;;4963136;28;20252;-54
2022/03/12 02:10:44;;;;;;;12.20;8.10;;;10.40;99.90;;;;;;4964360;28;20713;-54
2022/03/12 02:13:12;;;;;;;14.57;9.20;;;10.40;99.90;;;;;;4975615;28;20728;-56
2022/03/12 02:15:39;;;;;;;15.67;9.40;;;10.40;99.90;;;;;;4962084;28;20243;-57
2022/03/12 02:18:08;;;;;;;14.23;8.93;;;10.40;99.90;;;;;;4960653;28;20295;-56
2022/03/12 02:20:35;;;;;;;13.83;9.50;;;10.30;99.90;;;;;;4963897;28;20641;-55
2022/03/12 02:23:02;;;;;;;13.17;9.07;;;10.30;99.90;;;;;;4963486;28;20234;-55
2022/03/12 02:25:32;;;;;;;16.33;8.97;;;10.40;99.90;;;;;;4962700;28;20264;-55
2022/03/12 02:28:00;;;;;;;13.33;9.40;;;10.30;99.90;;;;;;4959972;28;20398;-55
2022/03/12 02:30:51;;;;;;;13.57;9.67;;;10.40;99.90;;;;;;4959871;28;20676;-54
2022/03/12 02:33:26;;;;;;;14.00;9.13;;;10.30;99.90;;;;;;4961836;28;20210;-56
2022/03/12 02:35:53;;;;;;;15.20;9.10;;;10.30;99.90;;;;;;4962017;28;20335;-54
2022/03/12 02:38:21;;;;;;;13.53;8.80;;;10.40;99.90;;;;;;4962945;28;20642;-54
2022/03/12 02:40:49;;;;;;;11.40;8.27;;;10.40;99.90;;;;;;4963392;28;20671;-54
2022/03/12 02:43:26;;;;;;;15.23;9.47;;;10.40;99.90;;;;;;4961659;28;20240;-54
2022/03/12 02:45:57;;;;;;;13.03;10.07;;;10.50;99.90;;;;;;4963449;28;20257;-54
2022/03/12 02:48:25;;;;;;;13.57;9.20;;;10.40;99.90;;;;;;4961547;28;20534;-55
2022/03/12 02:50:53;;;;;;;10.90;8.50;;;10.30;99.90;;;;;;4961969;28;20217;-54
2022/03/12 02:53:20;;;;;;;13.77;9.03;;;10.40;99.90;;;;;;4961453;28;20206;-54
2022/03/12 02:55:47;;;;;;;14.27;9.67;;;10.30;99.90;;;;;;4962750;28;20319;-58
2022/03/12 02:58:17;;;;;;;14.03;8.47;;;10.30;99.90;;;;;;4962223;28;20292;-55
2022/03/12 03:00:44;;;;;;;13.87;8.90;;;10.30;99.90;;;;;;4961403;28;20234;-56
2022/03/12 03:03:10;;;;;;;13.90;8.90;;;10.40;99.90;;;;;;4960847;28;20694;-55
2022/03/12 03:05:47;;;;;;;12.30;8.90;;;10.40;99.90;;;;;;4962252;28;20215;-55
2022/03/12 03:08:19;;;;;;;16.53;9.90;;;10.30;99.90;;;;;;4961295;28;21561;-54
2022/03/12 03:10:52;;;;;;;11.07;7.87;;;10.40;99.90;;;;;;4962708;28;20218;-54
2022/03/12 03:13:19;;;;;;;14.37;8.37;;;10.30;99.90;;;;;;4962058;28;20270;-54
2022/03/12 03:15:53;;;;;;;14.23;9.03;;;10.30;99.90;;;;;;4961435;28;20305;-54
2022/03/12 03:18:23;;;;;;;12.83;7.53;;;10.30;99.90;;;;;;4960979;28;20524;-54
2022/03/12 03:20:51;;;;;;;10.83;7.70;;;10.30;99.90;;;;;;4960526;28;20237;-54
2022/03/12 03:23:21;;;;;;;12.33;7.87;;;10.20;99.90;;;;;;4960277;28;20309;-53
2022/03/12 03:25:48;;;;;;;12.27;7.67;;;10.20;99.90;;;;;;4960745;28;20640;-54
2022/03/12 03:28:15;;;;;;;10.77;7.60;;;10.30;99.90;;;;;;4961381;28;20212;-54
2022/03/12 03:30:42;;;;;;;11.67;7.83;;;10.40;99.90;;;;;;4960043;28;20289;-54
2022/03/12 03:33:14;;;;;;;9.23;7.30;;;10.20;99.90;;;;;;4957575;28;20674;-54
2022/03/12 03:35:42;;;;;;;11.23;7.70;;;10.30;99.90;;;;;;4961140;28;20245;-54
2022/03/12 03:38:11;;;;;;;9.87;6.93;;;10.30;99.90;;;;;;4961967;28;20562;-53
2022/03/12 03:40:41;;;;;;;16.30;7.93;;;10.10;99.90;;;;;;4961224;28;20296;-54
2022/03/12 03:43:13;;;;;;;9.33;7.37;;;10.10;99.90;;;;;;4961535;28;21054;-53
2022/03/12 03:45:45;;;;;;;9.27;7.10;;;10.10;99.90;;;;;;4962593;28;20717;-54
2022/03/12 03:48:18;;;;;;;11.03;8.07;;;10.20;99.90;;;;;;4959420;28;20214;-54
2022/03/12 03:50:47;;;;;;;11.47;7.07;;;10.10;99.90;;;;;;4957326;28;20693;-54
2022/03/12 03:53:16;;;;;;;9.33;6.83;;;10.20;99.90;;;;;;4955673;28;20286;-54
2022/03/12 03:55:43;;;;;;;10.80;6.73;;;10.10;99.90;;;;;;4955136;28;20238;-54
2022/03/12 03:58:15;;;;;;;11.47;7.37;;;10.10;99.90;;;;;;4954413;28;20764;-54
2022/03/12 04:00:54;;;;;;;10.97;7.67;;;10.10;99.90;;;;;;4955773;28;20237;-56
2022/03/12 04:03:21;;;;;;;10.57;6.93;;;10.20;99.90;;;;;;4954729;28;20211;-54
2022/03/12 04:05:48;;;;;;;11.77;7.77;;;10.20;99.90;;;;;;4954167;28;20236;-54
2022/03/12 04:08:15;;;;;;;9.63;6.57;;;10.20;99.90;;;;;;4955141;28;20371;-54
2022/03/12 04:10:42;;;;;;;10.43;7.20;;;10.20;99.90;;;;;;4953922;28;20242;-55
2022/03/12 04:13:18;;;;;;;9.53;6.87;;;10.10;99.90;;;;;;4953378;28;20261;-54
2022/03/12 04:15:46;;;;;;;8.80;6.57;;;10.20;99.90;;;;;;4955572;28;20295;-54
2022/03/12 04:18:15;;;;;;;11.53;6.53;;;10.10;99.90;;;;;;4953783;28;20306;-53
2022/03/12 04:20:47;;;;;;;8.77;6.30;;;10.20;99.90;;;;;;4954315;28;20206;-55
2022/03/12 04:23:25;;;;;;;11.23;6.57;;;10.20;99.90;;;;;;4955345;28;20238;-55
2022/03/12 04:25:55;;;;;;;8.40;5.70;;;10.30;99.90;;;;;;4956051;28;20310;-55
2022/03/12 04:28:24;;;;;;;8.73;5.57;;;10.10;99.90;;;;;;4955348;28;20264;-54
2022/03/12 04:30:51;;;;;;;8.23;5.47;;;10.10;99.90;;;;;;4956423;28;20225;-55
2022/03/12 04:33:21;;;;;;;8.20;5.60;;;10.10;99.90;;;;;;4953768;28;20283;-54
2022/03/12 04:35:49;;;;;;;7.43;5.30;;;10.00;99.90;;;;;;4955272;28;20340;-53
2022/03/12 04:38:17;;;;;;;7.03;5.40;;;10.00;99.90;;;;;;4955499;28;20644;-58
2022/03/12 04:40:45;;;;;;;7.67;6.00;;;10.00;99.90;;;;;;4955772;28;20199;-53
2022/03/12 04:43:13;;;;;;;9.00;5.83;;;10.00;99.90;;;;;;4956547;28;20243;-53
2022/03/12 04:45:42;;;;;;;8.77;5.67;;;9.90;99.90;;;;;;4956226;28;20310;-56
2022/03/12 04:48:13;;;;;;;8.37;5.73;;;9.90;99.90;;;;;;4954808;28;20203;-54
2022/03/12 04:50:40;;;;;;;9.07;5.53;;;9.90;99.90;;;;;;4954384;28;20253;-54
2022/03/12 04:53:08;;;;;;;8.20;6.37;;;9.80;99.90;;;;;;4953919;28;20363;-56
2022/03/12 04:55:38;;;;;;;9.27;6.47;;;9.80;99.90;;;;;;4956926;28;20292;-54
2022/03/12 04:58:07;;;;;;;8.60;6.20;;;9.80;99.90;;;;;;4955095;28;20296;-54
2022/03/12 05:00:38;;;;;;;8.97;5.83;;;9.90;99.90;;;;;;4954793;28;20216;-56
2022/03/12 05:03:12;;;;;;;9.73;6.63;;;9.80;99.90;;;;;;4953503;28;20213;-54
2022/03/12 05:05:42;;;;;;;13.57;7.17;;;9.90;99.90;;;;;;4955191;28;20277;-55
2022/03/12 05:08:13;;;;;;;12.27;6.97;;;9.80;99.90;;;;;;4953390;28;20301;-55
2022/03/12 05:10:40;;;;;;;7.67;5.70;;;9.70;99.90;;;;;;4951191;28;20303;-55
2022/03/12 05:13:07;;;;;;;8.73;6.63;;;9.70;99.90;;;;;;4953300;28;20243;-54
2022/03/12 05:15:38;;;;;;;8.37;6.27;;;9.70;99.90;;;;;;4956335;28;20231;-55
2022/03/12 05:18:12;;;;;;;10.30;6.93;;;9.60;99.90;;;;;;4955783;28;20197;-55
2022/03/12 05:20:46;;;;;;;9.67;6.47;;;9.60;99.90;;;;;;4954854;28;20230;-53
2022/03/12 05:23:13;;;;;;;9.23;7.23;;;9.70;99.90;;;;;;4954296;28;20565;-55
2022/03/12 05:25:47;;;;;;;10.03;7.03;;;9.70;99.90;;;;;;4959079;28;20279;-54
2022/03/12 05:28:20;;;;;;;8.53;6.27;;;9.50;99.90;;;;;;4958602;28;20280;-54
2022/03/12 05:30:47;;;;;;;8.47;6.33;;;9.50;99.90;;;;;;4953956;28;20220;-54
2022/03/12 05:33:19;;;;;;;8.20;6.10;;;9.40;99.90;;;;;;4956046;28;20303;-54
2022/03/12 05:35:51;;;;;;;10.47;7.23;;;9.40;99.90;;;;;;4955875;28;20802;-54
2022/03/12 05:38:18;;;;;;;8.13;6.33;;;9.30;99.90;;;;;;4955979;28;20194;-54
2022/03/12 05:40:45;;;;;;;10.37;7.10;;;9.40;99.90;;;;;;4953798;28;20743;-54
2022/03/12 05:43:15;;;;;;;8.83;6.60;;;9.40;99.90;;;;;;4956109;28;20896;-53
2022/03/12 05:45:46;;;;;;;9.73;7.20;;;9.40;99.90;;;;;;4956085;28;20212;-54
2022/03/12 05:48:15;;;;;;;10.40;7.40;;;9.30;99.90;;;;;;4954852;28;20221;-54
2022/03/12 05:50:45;;;;;;;9.77;7.40;;;9.30;99.90;;;;;;4953519;28;20219;-54
2022/03/12 05:53:14;;;;;;;12.13;7.33;;;9.30;99.90;;;;;;4953471;28;20300;-54
2022/03/12 05:55:41;;;;;;;8.73;7.07;;;9.30;99.90;;;;;;4956680;28;20213;-54
2022/03/12 05:58:10;;;;;;;9.97;7.43;;;9.30;99.90;;;;;;4954152;28;20207;-56
2022/03/12 06:00:39;;;;;;;11.93;7.23;;;9.30;99.90;;;;;;4957773;28;20688;-53
2022/03/12 06:03:08;;;;;;;9.07;6.57;;;9.30;99.90;;;;;;4957229;28;20213;-56
2022/03/12 06:05:40;;;;;;;9.87;7.10;;;9.30;99.90;;;;;;4958816;28;20636;-55
2022/03/12 06:08:08;;;;;;;11.57;7.20;;;9.30;99.90;;;;;;4958944;28;20310;-54
2022/03/12 06:10:37;;;;;;;9.73;6.93;;;9.20;99.90;;;;;;4954948;28;20216;-54
2022/03/12 06:13:05;;;;;;;8.30;6.17;;;9.20;99.90;;;;;;4953620;28;20291;-54
2022/03/12 06:15:35;;;;;;;14.57;7.57;;;9.10;99.90;;;;;;4953232;28;20625;-54
2022/03/12 06:18:02;;;;;;;11.03;7.57;;;9.10;99.90;;;;;;4951117;28;20302;-54
2022/03/12 06:20:29;;;;;;;10.93;7.70;;;9.10;99.90;;;;;;4954139;28;20330;-54
2022/03/12 06:22:56;;;;;;;11.47;8.07;;;9.20;99.90;;;;;;4955714;28;20294;-54
2022/03/12 06:25:24;;;;;;;11.67;7.50;;;9.20;99.90;;;;;;4959004;28;20203;-54
2022/03/12 06:27:54;;;;;;;10.23;7.43;;;9.10;99.90;;;;;;4957280;28;20233;-54
2022/03/12 06:30:26;;;;;;;9.93;7.70;;;9.00;99.90;;;;;;4957573;28;20204;-54
2022/03/12 06:32:55;;;;;;;10.37;7.53;;;9.00;99.90;;;;;;4956737;28;20210;-54
2022/03/12 06:35:23;;;;;;;13.00;7.43;;;9.00;99.90;;;;;;4959810;28;20529;-53
2022/03/12 06:37:50;;;;;;;10.07;7.00;;;9.10;99.90;;;;;;4956516;28;20297;-54
2022/03/12 06:40:18;;;;;;;10.63;6.60;;;9.10;99.90;;;;;;4955084;28;20207;-55
2022/03/12 06:42:46;;;;;;;8.43;7.30;;;9.00;99.90;;;;;;4955680;28;20604;-55
2022/03/12 06:45:15;;;;;;;8.93;7.10;;;9.10;99.90;;;;;;4956997;28;20215;-55
2022/03/12 06:47:43;;;;;;;10.03;7.70;;;9.10;99.90;;;;;;4955547;28;20210;-54
2022/03/12 06:50:14;;;;;;;9.77;7.27;;;9.10;99.90;;;;;;4969420;28;20211;-56
2022/03/12 06:52:43;;;;;;;9.23;6.60;;;9.20;99.90;;;;;;4957743;28;20718;-55
2022/03/12 06:55:11;;;;;;;8.47;6.67;;;9.30;99.90;;;;;;4956304;28;20313;-55
2022/03/12 06:57:38;;;;;;;9.00;6.20;;;9.20;99.90;;;;;;4955057;28;20211;-54
2022/03/12 07:00:10;;;;;;;9.73;6.57;;;9.20;99.90;;;;;;4956990;28;20231;-53
2022/03/12 07:02:37;;;;;;;7.70;5.90;;;9.20;99.90;;;;;;4955293;28;20297;-54
2022/03/12 07:05:05;;;;;;;8.57;5.63;;;9.20;99.90;;;;;;4956468;28;20206;-54
2022/03/12 07:07:32;;;;;;;9.37;6.30;;;9.10;99.90;;;;;;4958176;28;20331;-53
2022/03/12 07:09:59;;;;;;;9.17;6.40;;;9.20;99.90;;;;;;4952032;28;20227;-55
2022/03/12 07:12:26;;;;;;;10.83;6.53;;;9.20;99.90;;;;;;4957071;28;20225;-54
2022/03/12 07:14:53;;;;;;;11.13;6.30;;;9.40;99.90;;;;;;4956414;28;20209;-55
2022/03/12 07:17:20;;;;;;;8.60;6.53;;;9.50;99.90;;;;;;4958075;28;20644;-53
2022/03/12 07:19:46;;;;;;;9.03;7.00;;;9.60;99.90;;;;;;4956015;28;20218;-53
2022/03/12 07:22:13;;;;;;;7.93;5.90;;;9.60;99.90;;;;;;4956654;28;20205;-54
2022/03/12 07:24:40;;;;;;;11.07;6.70;;;9.60;99.90;;;;;;4955674;28;20212;-56
2022/03/12 07:27:07;;;;;;;9.20;6.23;;;9.50;99.90;;;;;;4956509;28;20201;-55
2022/03/12 07:29:34;;;;;;;10.53;7.37;;;9.50;99.90;;;;;;4954868;28;20303;-54
2022/03/12 07:32:01;;;;;;;9.47;6.63;;;9.50;99.90;;;;;;4955426;28;20303;-54
2022/03/12 07:34:28;;;;;;;10.23;7.50;;;9.50;99.90;;;;;;4953552;28;20557;-54
2022/03/12 07:36:55;;;;;;;11.33;6.97;;;9.50;99.90;;;;;;4955569;28;20346;-54
2022/03/12 07:39:21;;;;;;;9.90;7.33;;;9.60;99.90;;;;;;4953735;28;20292;-54
2022/03/12 07:41:49;;;;;;;9.73;7.63;;;9.70;99.90;;;;;;4956977;28;20343;-54
2022/03/12 07:44:15;;;;;;;12.77;7.30;;;9.60;99.90;;;;;;4952276;28;20303;-54
2022/03/12 07:46:43;;;;;;;8.43;6.87;;;9.80;99.90;;;;;;4952981;28;20220;-54
2022/03/12 07:49:10;;;;;;;7.70;5.90;;;9.90;99.90;;;;;;4950205;28;20658;-54
2022/03/12 07:51:37;;;;;;;9.93;6.90;;;9.90;99.90;;;;;;4955528;28;20748;-55
2022/03/12 07:54:06;;;;;;;8.73;6.60;;;10.00;99.90;;;;;;4955431;28;21357;-54
2022/03/12 07:56:34;;;;;;;9.60;6.57;;;10.20;99.90;;;;;;4952080;28;20262;-55
2022/03/12 07:59:02;;;;;;;7.70;6.07;;;10.20;99.90;;;;;;4955129;28;20210;-56
2022/03/12 08:01:29;;;;;;;9.83;6.10;;;10.40;99.90;;;;;;4967292;28;20714;-55
2022/03/12 08:03:56;;;;;;;8.67;6.63;;;10.60;99.90;;;;;;4953856;28;20214;-54
2022/03/12 08:06:23;;;;;;;7.93;5.57;;;10.80;99.90;;;;;;4956384;28;20353;-54
2022/03/12 08:08:49;;;;;;;11.87;6.27;;;10.90;99.90;;;;;;4958396;28;20285;-54
2022/03/12 08:11:25;;;;;;;7.27;5.77;;;10.90;99.90;;;;;;4949127;28;20229;-54
2022/03/12 08:13:54;;;;;;;9.53;6.17;;;10.90;99.90;;;;;;4952224;28;20227;-54
2022/03/12 08:16:21;;;;;;;6.67;5.33;;;10.90;99.90;;;;;;4953332;28;20209;-54
2022/03/12 08:18:48;;;;;;;10.30;5.90;;;11.10;99.90;;;;;;4953221;28;20621;-54
2022/03/12 08:21:15;;;;;;;7.20;5.40;;;11.50;99.90;;;;;;4954802;28;20201;-56
2022/03/12 08:23:42;;;;;;;5.97;4.83;;;11.70;99.90;;;;;;4955617;28;21037;-55
2022/03/12 08:26:09;;;;;;;5.93;5.10;;;11.60;99.90;;;;;;4954732;28;20285;-55
2022/03/12 08:28:36;;;;;;;9.37;5.27;;;11.40;99.90;;;;;;4957583;28;20650;-55
2022/03/12 08:31:04;;;;;;;6.13;4.63;;;11.50;99.90;;;;;;4952211;28;20701;-54
2022/03/12 08:33:31;;;;;;;7.33;4.90;;;11.70;99.90;;;;;;4954389;28;20297;-54
2022/03/12 08:36:00;;;;;;;5.87;4.33;;;11.80;99.90;;;;;;4948177;28;20736;-54
2022/03/12 08:38:27;;;;;;;6.50;4.97;;;11.80;99.90;;;;;;4952542;28;20686;-54
2022/03/12 08:40:54;;;;;;;7.53;4.90;;;12.20;99.90;;;;;;4949906;28;20260;-54
2022/03/12 08:43:21;;;;;;;7.10;4.53;;;11.90;99.90;;;;;;4950697;28;20210;-53
2022/03/12 08:45:48;;;;;;;7.53;4.97;;;12.00;99.90;;;;;;4951280;28;20289;-54
2022/03/12 08:48:16;;;;;;;5.90;4.37;;;11.90;99.90;;;;;;4946920;28;20547;-53
2022/03/12 08:50:44;;;;;;;6.67;4.60;;;11.70;99.90;;;;;;4953759;28;20385;-54
2022/03/12 08:53:12;;;;;;;7.07;4.60;;;11.90;99.90;;;;;;4957224;28;20413;-54
2022/03/12 08:55:39;;;;;;;6.03;4.93;;;11.90;99.90;;;;;;4956054;28;20639;-54
2022/03/12 08:58:06;;;;;;;8.23;4.30;;;12.20;99.90;;;;;;4954779;28;20860;-56
2022/03/12 09:00:33;;;;;;;5.50;4.00;;;12.60;99.90;;;;;;4955256;28;20297;-55
2022/03/12 09:03:00;;;;;;;5.53;4.20;;;12.30;99.90;;;;;;4953880;28;20223;-55
2022/03/12 09:05:27;;;;;;;5.13;3.97;;;12.30;99.90;;;;;;4956203;28;20756;-55
2022/03/12 09:07:55;;;;;;;5.03;4.07;;;12.20;99.90;;;;;;4959267;28;20872;-55
2022/03/12 09:10:23;;;;;;;5.77;4.17;;;12.20;99.90;;;;;;4955287;28;20225;-54
2022/03/12 09:12:50;;;;;;;6.23;4.07;;;12.00;99.90;;;;;;4954834;28;20729;-54
2022/03/12 09:15:20;;;;;;;5.77;3.20;;;12.10;99.90;;;;;;4954557;28;20301;-54
2022/03/12 09:17:47;;;;;;;5.67;3.43;;;12.00;99.90;;;;;;4951358;28;20566;-54
2022/03/12 09:20:14;;;;;;;5.70;3.50;;;12.20;99.90;;;;;;4946411;28;20329;-54
2022/03/12 09:22:41;;;;;;;4.57;3.13;;;12.00;99.90;;;;;;4956757;28;20273;-54
2022/03/12 09:25:12;;;;;;;8.20;3.60;;;12.00;99.90;;;;;;4954940;28;20292;-54
2022/03/12 09:27:45;;;;;;;5.50;2.87;;;12.20;99.90;;;;;;4957722;28;20620;-56
2022/03/12 09:30:19;;;;;;;38.80;5.63;;;12.10;99.90;;;;;;4951725;28;20744;-55
2022/03/12 09:32:46;;;;;;;5.13;2.70;;;12.20;99.90;;;;;;4956380;28;20982;-54
2022/03/12 09:35:14;;;;;;;6.30;2.73;;;12.10;99.90;;;;;;4966599;28;20301;-55
2022/03/12 09:37:41;;;;;;;6.60;2.60;;;12.20;99.90;;;;;;4953629;28;20687;-56
2022/03/12 09:40:10;;;;;;;3.83;2.53;;;12.10;99.90;;;;;;4953547;28;20433;-55
2022/03/12 09:42:37;;;;;;;4.63;3.20;;;12.20;99.90;;;;;;4954920;28;20268;-55
2022/03/12 09:45:05;;;;;;;9.03;2.60;;;12.30;99.90;;;;;;4955719;28;20320;-55
2022/03/12 09:47:32;;;;;;;3.83;2.30;;;12.40;99.90;;;;;;4956161;28;20436;-53
2022/03/12 09:49:59;;;;;;;4.07;2.20;;;12.50;99.90;;;;;;4952866;28;20659;-54
2022/03/12 09:52:26;;;;;;;4.67;2.20;;;12.20;99.90;;;;;;4957508;28;20218;-54
2022/03/12 09:54:53;;;;;;;7.70;2.60;;;12.20;99.90;;;;;;4956540;28;20592;-54
2022/03/12 09:57:20;;;;;;;3.60;1.97;;;12.10;99.90;;;;;;4959557;28;20388;-53
2022/03/12 09:59:48;;;;;;;5.77;2.27;;;12.10;99.90;;;;;;4956336;28;20290;-54
2022/03/12 10:02:15;;;;;;;4.60;2.27;;;12.20;99.90;;;;;;4958410;28;20259;-54
2022/03/12 10:04:43;;;;;;;5.40;2.17;;;12.20;99.90;;;;;;4959157;28;20217;-54
2022/03/12 10:07:10;;;;;;;2.63;1.73;;;12.40;99.90;;;;;;4955665;28;20313;-54
2022/03/12 10:09:37;;;;;;;4.83;2.30;;;12.30;99.90;;;;;;4958431;28;20301;-55
2022/03/12 10:12:05;;;;;;;5.13;1.70;;;12.20;99.90;;;;;;4960511;28;20269;-55
2022/03/12 10:14:32;;;;;;;4.60;2.03;;;12.10;99.90;;;;;;4957414;28;20203;-54
2022/03/12 10:17:02;;;;;;;4.00;1.83;;;12.30;99.90;;;;;;4958032;28;20298;-54
2022/03/12 10:19:31;;;;;;;2.53;1.70;;;12.20;99.90;;;;;;4957277;28;20261;-54
2022/03/12 10:21:57;;;;;;;2.07;1.70;;;12.30;99.90;;;;;;4959691;28;20301;-54
2022/03/12 10:24:24;;;;;;;2.60;1.70;;;12.40;99.90;;;;;;4959709;28;20206;-53
2022/03/12 10:26:51;;;;;;;6.93;2.67;;;12.30;99.90;;;;;;4960549;28;20629;-56
2022/03/12 10:29:19;;;;;;;4.23;2.10;;;12.40;99.90;;;;;;4974779;28;20210;-55
2022/03/12 10:31:46;;;;;;;4.73;2.27;;;12.40;99.90;;;;;;4959237;28;20293;-54
2022/03/12 10:34:18;;;;;;;5.00;2.20;;;12.50;99.90;;;;;;4959087;28;20226;-54
2022/03/12 10:36:47;;;;;;;4.07;1.73;;;12.60;99.90;;;;;;4961217;28;20238;-54
2022/03/12 10:39:14;;;;;;;4.00;2.13;;;12.60;99.90;;;;;;4961191;28;20203;-54
2022/03/12 10:41:41;;;;;;;5.00;2.07;;;13.30;99.90;;;;;;4957240;28;20249;-54
2022/03/12 10:44:10;;;;;;;4.47;1.90;;;13.40;99.90;;;;;;4956901;28;21363;-53
2022/03/12 10:46:41;;;;;;;3.27;2.03;;;13.30;99.90;;;;;;4956332;28;20203;-54
2022/03/12 10:49:08;;;;;;;4.33;2.50;;;13.20;99.90;;;;;;4956488;28;22096;-54
2022/03/12 10:51:39;;;;;;;5.63;2.07;;;13.00;99.90;;;;;;4953754;28;20234;-53
2022/03/12 10:54:15;;;;;;;5.33;2.23;;;13.30;99.90;;;;;;4957497;28;20629;-56
2022/03/12 10:56:48;;;;;;;5.17;2.27;;;13.50;99.90;;;;;;4957815;28;20233;-54
2022/03/12 10:59:24;;;;;;;5.83;2.87;;;13.60;99.90;;;;;;4957794;28;20226;-55
2022/03/12 11:02:04;;;;;;;3.67;2.03;;;13.70;99.90;;;;;;4959496;28;20675;-57
2022/03/12 11:04:34;;;;;;;5.23;2.07;;;13.90;99.90;;;;;;4958214;28;20281;-58
2022/03/12 11:07:25;;;;;;;4.57;1.97;;;13.80;99.90;;;;;;4956842;28;20230;-55
2022/03/12 11:09:54;;;;;;;5.27;2.00;;;13.90;99.90;;;;;;4958699;28;20679;-54
2022/03/12 11:12:30;;;;;;;3.33;2.30;;;13.90;99.90;;;;;;4961166;28;20230;-56
2022/03/12 11:15:10;;;;;;;2.77;1.90;;;13.60;99.90;;;;;;4960416;28;20202;-56
2022/03/12 11:17:45;;;;;;;4.87;2.00;;;13.80;99.90;;;;;;4958231;28;20206;-57
2022/03/12 11:20:21;;;;;;;6.27;2.10;;;13.90;99.90;;;;;;4956909;28;20620;-54
2022/03/12 11:23:09;;;;;;;5.83;2.20;;;13.70;99.90;;;;;;4959613;28;20301;-55
2022/03/12 11:25:49;;;;;;;6.63;2.20;;;13.50;99.90;;;;;;4960303;28;20751;-55
2022/03/12 11:28:19;;;;;;;3.87;1.87;;;13.60;99.90;;;;;;4955726;28;20231;-55
2022/03/12 11:30:45;;;;;;;3.30;2.00;;;13.80;99.90;;;;;;4957576;28;20625;-55
2022/03/12 11:33:14;;;;;;;3.00;1.97;;;14.10;99.90;;;;;;4956961;28;20238;-54
2022/03/12 11:35:46;;;;;;;4.40;2.10;;;14.30;99.90;;;;;;4960079;28;20210;-54
2022/03/12 11:38:18;;;;;;;3.57;1.87;;;14.20;99.90;;;;;;4959165;28;20667;-56
2022/03/12 11:41:04;;;;;;;6.57;1.77;;;14.20;99.90;;;;;;4959118;28;20247;-56
2022/03/12 11:43:38;;;;;;;5.47;2.13;;;14.10;99.90;;;;;;4956425;28;20438;-56
2022/03/12 11:46:07;;;;;;;3.97;1.43;;;14.10;99.90;;;;;;4956613;28;20236;-55
2022/03/12 11:48:39;;;;;;;3.03;1.60;;;14.10;99.90;;;;;;4954959;28;20553;-55
2022/03/12 11:51:22;;;;;;;3.17;1.87;;;14.30;99.90;;;;;;4953707;28;20240;-55
2022/03/12 11:53:50;;;;;;;4.80;2.07;;;14.90;99.90;;;;;;4957945;28;20219;-55
2022/03/12 11:56:17;;;;;;;3.07;1.60;;;15.20;99.90;;;;;;4958448;28;20632;-55
2022/03/12 11:58:45;;;;;;;2.93;1.60;;;15.60;99.90;;;;;;4957549;28;20216;-54
2022/03/12 12:01:20;;;;;;;5.13;1.60;;;15.50;99.90;;;;;;4953269;28;20236;-54
2022/03/12 12:03:49;;;;;;;3.23;1.70;;;15.10;99.90;;;;;;4958425;28;20264;-54
2022/03/12 12:06:17;;;;;;;5.13;1.40;;;15.00;99.90;;;;;;4955504;28;20315;-54
2022/03/12 12:08:45;;;;;;;3.40;1.70;;;15.00;99.90;;;;;;4959830;28;20317;-54
2022/03/12 12:11:12;;;;;;;4.73;1.80;;;15.30;99.90;;;;;;4957964;28;20210;-54
2022/03/12 12:13:44;;;;;;;4.77;1.67;;;15.20;99.90;;;;;;4959291;28;20256;-54
2022/03/12 12:16:15;;;;;;;4.17;2.17;;;15.60;99.90;;;;;;4957731;28;20695;-54
2022/03/12 12:18:43;;;;;;;6.07;1.50;;;16.10;99.90;;;;;;4959207;28;20200;-54
2022/03/12 12:21:17;;;;;;;4.80;2.73;;;16.40;99.90;;;;;;4957633;28;20327;-54
2022/03/12 12:23:44;;;;;;;3.53;1.50;;;16.00;99.90;;;;;;4961723;28;20295;-54
2022/03/12 12:26:13;;;;;;;3.53;1.30;;;15.90;99.90;;;;;;4953807;28;20208;-56
2022/03/12 12:28:48;;;;;;;3.20;1.47;;;15.60;99.90;;;;;;4957282;28;20223;-54
2022/03/12 12:31:44;;;;;;;4.57;1.70;;;15.80;99.90;;;;;;4954801;28;20213;-53
2022/03/12 12:34:11;;;;;;;5.70;1.47;;;16.10;99.90;;;;;;4957032;28;20298;-54
2022/03/12 12:36:48;;;;;;;4.30;1.50;;;16.10;99.90;;;;;;4968093;28;20593;-54
2022/03/12 12:39:17;;;;;;;3.03;1.43;;;16.40;99.90;;;;;;4955124;28;20287;-56
2022/03/12 12:41:54;;;;;;;4.87;1.70;;;16.00;99.90;;;;;;4954192;28;20296;-55
2022/03/12 12:44:34;;;;;;;2.93;1.47;;;15.70;99.90;;;;;;4953891;28;20212;-54
2022/03/12 12:47:03;;;;;;;5.27;1.43;;;16.50;99.90;;;;;;4958279;28;20655;-55
2022/03/12 12:49:40;;;;;;;4.93;1.57;;;16.70;99.90;;;;;;4956602;28;20669;-54
2022/03/12 12:52:08;;;;;;;2.63;1.20;;;16.70;99.90;;;;;;4958416;28;20253;-57
2022/03/12 12:54:46;;;;;;;6.17;1.50;;;16.50;99.90;;;;;;4954750;28;20959;-54
2022/03/12 12:57:13;;;;;;;3.63;1.57;;;16.20;99.90;;;;;;4955636;28;20643;-54